sensor_id;sensor_type;location;lat;lon;timestamp;P1;durP1;ratioP1;P2;durP2;ratioP2
803;SDS011;25687;49.976;8.240;2022-10-31T00:00:24;22.07;;;15.47;;
803;SDS011;25687;49.976;8.240;2022-10-31T00:02:49;26.90;;;16.70;;
803;SDS011;25687;49.976;8.240;2022-10-31T00:05:15;20.30;;;14.60;;
803;SDS011;25687;49.976;8.240;2022-10-31T00:07:40;19.13;;;15.13;;
803;SDS011;25687;49.976;8.240;2022-10-31T00:10:06;21.33;;;15.40;;
803;SDS011;25687;49.976;8.240;2022-10-31T00:12:32;24.80;;;17.07;;
803;SDS011;25687;49.976;8.240;2022-10-31T00:14:57;19.70;;;14.20;;
803;SDS011;25687;49.976;8.240;2022-10-31T00:17:22;23.03;;;16.57;;
803;SDS011;25687;49.976;8.240;2022-10-31T00:19:47;21.80;;;15.23;;
803;SDS011;25687;49.976;8.240;2022-10-31T00:22:13;23.33;;;16.03;;
803;SDS011;25687;49.976;8.240;2022-10-31T00:24:38;23.27;;;15.93;;
803;SDS011;25687;49.976;8.240;2022-10-31T00:27:03;26.47;;;17.07;;
803;SDS011;25687;49.976;8.240;2022-10-31T00:29:28;20.17;;;15.53;;
803;SDS011;25687;49.976;8.240;2022-10-31T00:31:54;20.67;;;15.17;;
803;SDS011;25687;49.976;8.240;2022-10-31T00:34:19;18.57;;;15.83;;
803;SDS011;25687;49.976;8.240;2022-10-31T00:36:44;19.33;;;14.60;;
803;SDS011;25687;49.976;8.240;2022-10-31T00:39:10;20.80;;;14.90;;
803;SDS011;25687;49.976;8.240;2022-10-31T00:41:35;20.83;;;15.67;;
803;SDS011;25687;49.976;8.240;2022-10-31T00:44:00;19.23;;;14.77;;
803;SDS011;25687;49.976;8.240;2022-10-31T00:46:25;19.83;;;14.70;;
803;SDS011;25687;49.976;8.240;2022-10-31T00:48:51;23.73;;;15.77;;
803;SDS011;25687;49.976;8.240;2022-10-31T00:51:16;20.57;;;14.37;;
803;SDS011;25687;49.976;8.240;2022-10-31T00:53:42;18.83;;;13.87;;
803;SDS011;25687;49.976;8.240;2022-10-31T00:56:07;17.13;;;14.20;;
803;SDS011;25687;49.976;8.240;2022-10-31T00:58:32;18.27;;;15.10;;
803;SDS011;25687;49.976;8.240;2022-10-31T01:00:57;21.83;;;15.73;;
803;SDS011;25687;49.976;8.240;2022-10-31T01:03:27;21.07;;;15.50;;
803;SDS011;25687;49.976;8.240;2022-10-31T01:08:25;22.07;;;16.43;;
803;SDS011;25687;49.976;8.240;2022-10-31T01:13:33;17.67;;;14.73;;
803;SDS011;25687;49.976;8.240;2022-10-31T01:15:59;21.20;;;15.60;;
803;SDS011;25687;49.976;8.240;2022-10-31T01:18:25;21.73;;;15.67;;
803;SDS011;25687;49.976;8.240;2022-10-31T01:21:25;21.40;;;16.33;;
803;SDS011;25687;49.976;8.240;2022-10-31T01:23:44;23.33;;;16.43;;
803;SDS011;25687;49.976;8.240;2022-10-31T01:28:47;20.73;;;15.83;;
803;SDS011;25687;49.976;8.240;2022-10-31T01:31:14;21.50;;;15.60;;
803;SDS011;25687;49.976;8.240;2022-10-31T01:33:41;18.10;;;14.67;;
803;SDS011;25687;49.976;8.240;2022-10-31T01:36:14;21.10;;;15.00;;
803;SDS011;25687;49.976;8.240;2022-10-31T01:38:44;22.00;;;15.47;;
803;SDS011;25687;49.976;8.240;2022-10-31T01:41:11;22.97;;;15.00;;
803;SDS011;25687;49.976;8.240;2022-10-31T01:43:42;17.30;;;15.30;;
803;SDS011;25687;49.976;8.240;2022-10-31T01:46:09;25.73;;;15.83;;
803;SDS011;25687;49.976;8.240;2022-10-31T01:48:34;23.70;;;15.20;;
803;SDS011;25687;49.976;8.240;2022-10-31T01:51:00;21.73;;;15.50;;
803;SDS011;25687;49.976;8.240;2022-10-31T01:53:25;17.73;;;13.83;;
803;SDS011;25687;49.976;8.240;2022-10-31T01:55:51;23.17;;;15.67;;
803;SDS011;25687;49.976;8.240;2022-10-31T01:58:19;23.03;;;14.57;;
803;SDS011;25687;49.976;8.240;2022-10-31T02:00:48;19.17;;;14.33;;
803;SDS011;25687;49.976;8.240;2022-10-31T02:03:17;18.53;;;14.23;;
803;SDS011;25687;49.976;8.240;2022-10-31T02:05:44;22.80;;;14.37;;
803;SDS011;25687;49.976;8.240;2022-10-31T02:08:12;19.00;;;14.03;;
803;SDS011;25687;49.976;8.240;2022-10-31T02:10:43;19.63;;;13.27;;
803;SDS011;25687;49.976;8.240;2022-10-31T02:13:09;18.37;;;13.70;;
803;SDS011;25687;49.976;8.240;2022-10-31T02:15:36;18.93;;;14.40;;
803;SDS011;25687;49.976;8.240;2022-10-31T02:18:03;19.33;;;13.73;;
803;SDS011;25687;49.976;8.240;2022-10-31T02:20:32;20.67;;;14.87;;
803;SDS011;25687;49.976;8.240;2022-10-31T02:29:38;20.33;;;14.10;;
803;SDS011;25687;49.976;8.240;2022-10-31T02:35:00;22.13;;;14.57;;
803;SDS011;25687;49.976;8.240;2022-10-31T02:37:51;15.37;;;13.27;;
803;SDS011;25687;49.976;8.240;2022-10-31T02:40:59;17.37;;;14.30;;
803;SDS011;25687;49.976;8.240;2022-10-31T02:43:33;21.87;;;15.23;;
803;SDS011;25687;49.976;8.240;2022-10-31T02:46:15;18.83;;;14.70;;
803;SDS011;25687;49.976;8.240;2022-10-31T02:48:54;19.73;;;14.03;;
803;SDS011;25687;49.976;8.240;2022-10-31T02:51:25;19.77;;;14.63;;
803;SDS011;25687;49.976;8.240;2022-10-31T02:53:50;18.00;;;15.57;;
803;SDS011;25687;49.976;8.240;2022-10-31T02:56:17;17.27;;;15.23;;
803;SDS011;25687;49.976;8.240;2022-10-31T03:01:26;19.67;;;13.93;;
803;SDS011;25687;49.976;8.240;2022-10-31T03:04:02;16.50;;;14.23;;
803;SDS011;25687;49.976;8.240;2022-10-31T03:12:11;24.77;;;15.20;;
803;SDS011;25687;49.976;8.240;2022-10-31T03:14:43;23.60;;;15.90;;
803;SDS011;25687;49.976;8.240;2022-10-31T03:17:33;17.97;;;14.10;;
803;SDS011;25687;49.976;8.240;2022-10-31T03:20:02;20.03;;;14.70;;
803;SDS011;25687;49.976;8.240;2022-10-31T03:22:31;16.47;;;14.07;;
803;SDS011;25687;49.976;8.240;2022-10-31T03:25:00;22.60;;;14.90;;
803;SDS011;25687;49.976;8.240;2022-10-31T03:27:28;19.13;;;14.30;;
803;SDS011;25687;49.976;8.240;2022-10-31T03:29:57;19.93;;;14.43;;
803;SDS011;25687;49.976;8.240;2022-10-31T03:32:26;18.07;;;13.97;;
803;SDS011;25687;49.976;8.240;2022-10-31T03:34:57;18.37;;;13.33;;
803;SDS011;25687;49.976;8.240;2022-10-31T03:37:28;18.53;;;13.87;;
803;SDS011;25687;49.976;8.240;2022-10-31T03:39:57;16.17;;;13.53;;
803;SDS011;25687;49.976;8.240;2022-10-31T03:42:25;20.47;;;15.00;;
803;SDS011;25687;49.976;8.240;2022-10-31T03:44:54;21.67;;;14.60;;
803;SDS011;25687;49.976;8.240;2022-10-31T03:47:24;22.57;;;13.43;;
803;SDS011;25687;49.976;8.240;2022-10-31T03:49:50;17.23;;;14.27;;
803;SDS011;25687;49.976;8.240;2022-10-31T03:52:23;22.33;;;14.93;;
803;SDS011;25687;49.976;8.240;2022-10-31T03:54:58;21.83;;;15.27;;
803;SDS011;25687;49.976;8.240;2022-10-31T04:00:18;19.23;;;14.63;;
803;SDS011;25687;49.976;8.240;2022-10-31T04:05:42;18.00;;;13.43;;
803;SDS011;25687;49.976;8.240;2022-10-31T04:08:11;22.03;;;14.97;;
803;SDS011;25687;49.976;8.240;2022-10-31T04:10:40;17.37;;;13.37;;
803;SDS011;25687;49.976;8.240;2022-10-31T04:13:13;19.47;;;14.27;;
803;SDS011;25687;49.976;8.240;2022-10-31T04:15:42;16.40;;;13.30;;
803;SDS011;25687;49.976;8.240;2022-10-31T04:18:09;20.13;;;13.13;;
803;SDS011;25687;49.976;8.240;2022-10-31T04:20:35;17.47;;;13.50;;
803;SDS011;25687;49.976;8.240;2022-10-31T04:23:03;20.10;;;14.23;;
803;SDS011;25687;49.976;8.240;2022-10-31T04:25:29;16.97;;;13.73;;
803;SDS011;25687;49.976;8.240;2022-10-31T04:27:55;17.87;;;13.43;;
803;SDS011;25687;49.976;8.240;2022-10-31T04:30:20;21.63;;;14.10;;
803;SDS011;25687;49.976;8.240;2022-10-31T04:32:45;20.30;;;14.23;;
803;SDS011;25687;49.976;8.240;2022-10-31T04:35:10;20.63;;;14.03;;
803;SDS011;25687;49.976;8.240;2022-10-31T04:37:36;17.03;;;14.40;;
803;SDS011;25687;49.976;8.240;2022-10-31T04:40:01;14.43;;;13.00;;
803;SDS011;25687;49.976;8.240;2022-10-31T04:42:31;19.13;;;13.50;;
803;SDS011;25687;49.976;8.240;2022-10-31T04:44:56;15.70;;;13.03;;
803;SDS011;25687;49.976;8.240;2022-10-31T04:47:22;16.27;;;13.43;;
803;SDS011;25687;49.976;8.240;2022-10-31T04:49:47;18.47;;;13.53;;
803;SDS011;25687;49.976;8.240;2022-10-31T04:52:12;18.70;;;14.03;;
803;SDS011;25687;49.976;8.240;2022-10-31T04:54:38;20.00;;;12.90;;
803;SDS011;25687;49.976;8.240;2022-10-31T04:57:03;18.17;;;13.97;;
803;SDS011;25687;49.976;8.240;2022-10-31T04:59:28;16.73;;;11.97;;
803;SDS011;25687;49.976;8.240;2022-10-31T05:01:54;17.83;;;15.40;;
803;SDS011;25687;49.976;8.240;2022-10-31T05:04:19;19.10;;;13.33;;
803;SDS011;25687;49.976;8.240;2022-10-31T05:06:44;14.50;;;12.97;;
803;SDS011;25687;49.976;8.240;2022-10-31T05:09:09;21.40;;;13.27;;
803;SDS011;25687;49.976;8.240;2022-10-31T05:11:35;20.27;;;13.67;;
803;SDS011;25687;49.976;8.240;2022-10-31T05:14:00;15.03;;;12.73;;
803;SDS011;25687;49.976;8.240;2022-10-31T05:16:25;18.83;;;13.73;;
803;SDS011;25687;49.976;8.240;2022-10-31T05:18:51;18.10;;;14.07;;
803;SDS011;25687;49.976;8.240;2022-10-31T05:21:16;19.73;;;12.63;;
803;SDS011;25687;49.976;8.240;2022-10-31T05:23:41;17.47;;;13.20;;
803;SDS011;25687;49.976;8.240;2022-10-31T05:26:06;17.30;;;12.93;;
803;SDS011;25687;49.976;8.240;2022-10-31T05:28:32;16.77;;;13.00;;
803;SDS011;25687;49.976;8.240;2022-10-31T05:30:57;14.23;;;12.10;;
803;SDS011;25687;49.976;8.240;2022-10-31T05:33:22;16.53;;;11.60;;
803;SDS011;25687;49.976;8.240;2022-10-31T05:35:48;14.07;;;12.10;;
803;SDS011;25687;49.976;8.240;2022-10-31T05:38:13;20.97;;;12.10;;
803;SDS011;25687;49.976;8.240;2022-10-31T05:40:38;14.43;;;12.30;;
803;SDS011;25687;49.976;8.240;2022-10-31T05:43:04;15.60;;;12.13;;
803;SDS011;25687;49.976;8.240;2022-10-31T05:45:29;15.30;;;11.87;;
803;SDS011;25687;49.976;8.240;2022-10-31T05:47:55;17.07;;;11.50;;
803;SDS011;25687;49.976;8.240;2022-10-31T05:50:25;14.57;;;12.23;;
803;SDS011;25687;49.976;8.240;2022-10-31T05:53:02;13.40;;;12.00;;
803;SDS011;25687;49.976;8.240;2022-10-31T05:55:29;23.90;;;12.43;;
803;SDS011;25687;49.976;8.240;2022-10-31T05:57:55;14.40;;;12.70;;
803;SDS011;25687;49.976;8.240;2022-10-31T06:00:21;14.87;;;12.43;;
803;SDS011;25687;49.976;8.240;2022-10-31T06:02:48;13.63;;;12.03;;
803;SDS011;25687;49.976;8.240;2022-10-31T06:05:13;13.60;;;11.90;;
803;SDS011;25687;49.976;8.240;2022-10-31T06:07:39;11.93;;;10.73;;
803;SDS011;25687;49.976;8.240;2022-10-31T06:10:05;16.93;;;12.07;;
803;SDS011;25687;49.976;8.240;2022-10-31T06:12:33;16.17;;;12.37;;
803;SDS011;25687;49.976;8.240;2022-10-31T06:15:03;18.03;;;10.97;;
803;SDS011;25687;49.976;8.240;2022-10-31T06:17:30;17.13;;;12.43;;
803;SDS011;25687;49.976;8.240;2022-10-31T06:19:55;18.70;;;12.43;;
803;SDS011;25687;49.976;8.240;2022-10-31T06:22:20;14.33;;;11.47;;
803;SDS011;25687;49.976;8.240;2022-10-31T06:24:46;17.30;;;11.27;;
803;SDS011;25687;49.976;8.240;2022-10-31T06:27:11;17.73;;;12.60;;
803;SDS011;25687;49.976;8.240;2022-10-31T06:29:36;14.00;;;12.53;;
803;SDS011;25687;49.976;8.240;2022-10-31T06:32:01;13.87;;;12.03;;
803;SDS011;25687;49.976;8.240;2022-10-31T06:34:27;13.13;;;11.00;;
803;SDS011;25687;49.976;8.240;2022-10-31T06:36:52;15.33;;;11.80;;
803;SDS011;25687;49.976;8.240;2022-10-31T06:39:17;20.33;;;10.63;;
803;SDS011;25687;49.976;8.240;2022-10-31T06:41:43;13.87;;;10.37;;
803;SDS011;25687;49.976;8.240;2022-10-31T06:44:08;12.53;;;10.17;;
803;SDS011;25687;49.976;8.240;2022-10-31T06:46:33;11.50;;;9.67;;
803;SDS011;25687;49.976;8.240;2022-10-31T06:48:59;9.83;;;8.70;;
803;SDS011;25687;49.976;8.240;2022-10-31T06:51:24;16.70;;;9.27;;
803;SDS011;25687;49.976;8.240;2022-10-31T06:53:49;17.50;;;9.03;;
803;SDS011;25687;49.976;8.240;2022-10-31T06:56:15;14.67;;;9.33;;
803;SDS011;25687;49.976;8.240;2022-10-31T06:58:40;13.57;;;9.23;;
803;SDS011;25687;49.976;8.240;2022-10-31T07:01:06;16.17;;;9.70;;
803;SDS011;25687;49.976;8.240;2022-10-31T07:03:31;11.77;;;8.50;;
803;SDS011;25687;49.976;8.240;2022-10-31T07:05:57;13.10;;;9.03;;
803;SDS011;25687;49.976;8.240;2022-10-31T07:08:22;12.17;;;9.23;;
803;SDS011;25687;49.976;8.240;2022-10-31T07:10:52;15.60;;;9.57;;
803;SDS011;25687;49.976;8.240;2022-10-31T07:13:18;9.53;;;8.20;;
803;SDS011;25687;49.976;8.240;2022-10-31T07:15:46;14.43;;;8.83;;
803;SDS011;25687;49.976;8.240;2022-10-31T07:18:11;13.13;;;8.07;;
803;SDS011;25687;49.976;8.240;2022-10-31T07:20:37;11.87;;;8.13;;
803;SDS011;25687;49.976;8.240;2022-10-31T07:23:03;12.90;;;8.50;;
803;SDS011;25687;49.976;8.240;2022-10-31T07:25:28;17.07;;;8.67;;
803;SDS011;25687;49.976;8.240;2022-10-31T07:27:54;12.63;;;8.13;;
803;SDS011;25687;49.976;8.240;2022-10-31T07:30:20;15.27;;;8.47;;
803;SDS011;25687;49.976;8.240;2022-10-31T07:32:46;14.93;;;7.63;;
803;SDS011;25687;49.976;8.240;2022-10-31T07:35:17;13.37;;;8.27;;
803;SDS011;25687;49.976;8.240;2022-10-31T07:37:44;13.10;;;8.43;;
803;SDS011;25687;49.976;8.240;2022-10-31T07:40:10;11.17;;;7.53;;
803;SDS011;25687;49.976;8.240;2022-10-31T07:42:36;10.80;;;7.83;;
803;SDS011;25687;49.976;8.240;2022-10-31T07:45:02;14.53;;;8.50;;
803;SDS011;25687;49.976;8.240;2022-10-31T07:47:28;19.67;;;8.80;;
803;SDS011;25687;49.976;8.240;2022-10-31T07:49:54;8.73;;;7.50;;
803;SDS011;25687;49.976;8.240;2022-10-31T07:52:19;11.93;;;7.73;;
803;SDS011;25687;49.976;8.240;2022-10-31T07:54:44;9.10;;;7.73;;
803;SDS011;25687;49.976;8.240;2022-10-31T07:57:09;12.73;;;7.67;;
803;SDS011;25687;49.976;8.240;2022-10-31T07:59:35;11.90;;;7.83;;
803;SDS011;25687;49.976;8.240;2022-10-31T08:02:00;8.77;;;7.43;;
803;SDS011;25687;49.976;8.240;2022-10-31T08:04:25;7.80;;;6.57;;
803;SDS011;25687;49.976;8.240;2022-10-31T08:06:51;12.83;;;7.23;;
803;SDS011;25687;49.976;8.240;2022-10-31T08:09:16;13.53;;;6.53;;
803;SDS011;25687;49.976;8.240;2022-10-31T08:11:41;13.30;;;7.10;;
803;SDS011;25687;49.976;8.240;2022-10-31T08:14:06;9.70;;;7.10;;
803;SDS011;25687;49.976;8.240;2022-10-31T08:16:32;7.87;;;7.03;;
803;SDS011;25687;49.976;8.240;2022-10-31T08:18:57;13.17;;;6.40;;
803;SDS011;25687;49.976;8.240;2022-10-31T08:21:22;10.83;;;7.07;;
803;SDS011;25687;49.976;8.240;2022-10-31T08:23:47;9.83;;;6.97;;
803;SDS011;25687;49.976;8.240;2022-10-31T08:26:13;8.80;;;7.50;;
803;SDS011;25687;49.976;8.240;2022-10-31T08:28:38;14.67;;;7.43;;
803;SDS011;25687;49.976;8.240;2022-10-31T08:31:03;13.07;;;7.07;;
803;SDS011;25687;49.976;8.240;2022-10-31T08:33:29;14.07;;;7.73;;
803;SDS011;25687;49.976;8.240;2022-10-31T08:35:57;13.10;;;7.93;;
803;SDS011;25687;49.976;8.240;2022-10-31T08:38:22;14.10;;;7.27;;
803;SDS011;25687;49.976;8.240;2022-10-31T08:40:48;11.80;;;8.77;;
803;SDS011;25687;49.976;8.240;2022-10-31T08:43:15;8.87;;;7.57;;
803;SDS011;25687;49.976;8.240;2022-10-31T08:45:41;14.10;;;8.67;;
803;SDS011;25687;49.976;8.240;2022-10-31T08:48:10;26.20;;;9.23;;
803;SDS011;25687;49.976;8.240;2022-10-31T08:50:38;15.30;;;9.07;;
803;SDS011;25687;49.976;8.240;2022-10-31T08:53:08;12.93;;;8.77;;
803;SDS011;25687;49.976;8.240;2022-10-31T08:55:36;14.93;;;8.73;;
803;SDS011;25687;49.976;8.240;2022-10-31T08:58:03;19.60;;;8.80;;
803;SDS011;25687;49.976;8.240;2022-10-31T09:00:29;15.40;;;8.87;;
803;SDS011;25687;49.976;8.240;2022-10-31T09:02:56;13.40;;;8.80;;
803;SDS011;25687;49.976;8.240;2022-10-31T09:05:22;17.17;;;9.17;;
803;SDS011;25687;49.976;8.240;2022-10-31T09:07:47;16.70;;;9.60;;
803;SDS011;25687;49.976;8.240;2022-10-31T09:10:13;16.30;;;9.40;;
803;SDS011;25687;49.976;8.240;2022-10-31T09:12:38;14.77;;;9.30;;
803;SDS011;25687;49.976;8.240;2022-10-31T09:15:03;14.37;;;9.57;;
803;SDS011;25687;49.976;8.240;2022-10-31T09:17:31;16.53;;;9.20;;
803;SDS011;25687;49.976;8.240;2022-10-31T09:19:56;17.83;;;9.77;;
803;SDS011;25687;49.976;8.240;2022-10-31T09:22:22;15.80;;;9.07;;
803;SDS011;25687;49.976;8.240;2022-10-31T09:24:47;13.67;;;9.70;;
803;SDS011;25687;49.976;8.240;2022-10-31T09:27:12;16.57;;;9.20;;
803;SDS011;25687;49.976;8.240;2022-10-31T09:29:37;16.20;;;9.80;;
803;SDS011;25687;49.976;8.240;2022-10-31T09:32:03;16.97;;;9.70;;
803;SDS011;25687;49.976;8.240;2022-10-31T09:34:28;13.03;;;9.73;;
803;SDS011;25687;49.976;8.240;2022-10-31T09:36:53;13.50;;;9.07;;
803;SDS011;25687;49.976;8.240;2022-10-31T09:39:19;18.63;;;10.00;;
803;SDS011;25687;49.976;8.240;2022-10-31T09:42:00;19.40;;;10.93;;
803;SDS011;25687;49.976;8.240;2022-10-31T09:44:46;15.63;;;11.37;;
803;SDS011;25687;49.976;8.240;2022-10-31T09:50:15;24.60;;;12.37;;
803;SDS011;25687;49.976;8.240;2022-10-31T09:55:42;14.30;;;10.83;;
803;SDS011;25687;49.976;8.240;2022-10-31T09:58:31;14.60;;;9.93;;
803;SDS011;25687;49.976;8.240;2022-10-31T10:01:00;15.83;;;9.30;;
803;SDS011;25687;49.976;8.240;2022-10-31T10:03:42;15.77;;;8.93;;
803;SDS011;25687;49.976;8.240;2022-10-31T10:06:15;23.00;;;8.50;;
803;SDS011;25687;49.976;8.240;2022-10-31T10:08:44;14.27;;;8.67;;
803;SDS011;25687;49.976;8.240;2022-10-31T10:16:43;15.00;;;8.17;;
803;SDS011;25687;49.976;8.240;2022-10-31T10:19:39;10.20;;;7.73;;
803;SDS011;25687;49.976;8.240;2022-10-31T10:22:22;17.17;;;7.60;;
803;SDS011;25687;49.976;8.240;2022-10-31T10:25:14;11.67;;;7.90;;
803;SDS011;25687;49.976;8.240;2022-10-31T10:31:01;16.63;;;7.30;;
803;SDS011;25687;49.976;8.240;2022-10-31T10:33:39;10.70;;;6.70;;
803;SDS011;25687;49.976;8.240;2022-10-31T10:36:18;12.67;;;8.03;;
803;SDS011;25687;49.976;8.240;2022-10-31T10:39:13;17.20;;;8.47;;
803;SDS011;25687;49.976;8.240;2022-10-31T10:41:53;13.40;;;8.73;;
803;SDS011;25687;49.976;8.240;2022-10-31T10:44:48;16.47;;;8.73;;
803;SDS011;25687;49.976;8.240;2022-10-31T10:47:40;16.53;;;8.93;;
803;SDS011;25687;49.976;8.240;2022-10-31T10:55:41;14.10;;;8.23;;
803;SDS011;25687;49.976;8.240;2022-10-31T10:58:14;15.70;;;8.20;;
803;SDS011;25687;49.976;8.240;2022-10-31T11:00:40;13.67;;;8.50;;
803;SDS011;25687;49.976;8.240;2022-10-31T11:03:07;14.00;;;10.03;;
803;SDS011;25687;49.976;8.240;2022-10-31T11:05:39;14.73;;;9.83;;
803;SDS011;25687;49.976;8.240;2022-10-31T11:08:23;18.70;;;11.03;;
803;SDS011;25687;49.976;8.240;2022-10-31T11:10:58;22.33;;;10.57;;
803;SDS011;25687;49.976;8.240;2022-10-31T11:13:29;17.83;;;11.33;;
803;SDS011;25687;49.976;8.240;2022-10-31T11:15:57;19.27;;;10.80;;
803;SDS011;25687;49.976;8.240;2022-10-31T11:18:26;14.73;;;10.57;;
803;SDS011;25687;49.976;8.240;2022-10-31T11:20:56;12.07;;;10.33;;
803;SDS011;25687;49.976;8.240;2022-10-31T11:23:23;19.93;;;10.83;;
803;SDS011;25687;49.976;8.240;2022-10-31T11:25:51;17.73;;;12.10;;
803;SDS011;25687;49.976;8.240;2022-10-31T11:28:29;20.67;;;11.70;;
803;SDS011;25687;49.976;8.240;2022-10-31T11:31:01;20.83;;;10.97;;
803;SDS011;25687;49.976;8.240;2022-10-31T11:33:32;16.27;;;11.07;;
803;SDS011;25687;49.976;8.240;2022-10-31T11:36:02;17.47;;;11.33;;
803;SDS011;25687;49.976;8.240;2022-10-31T11:38:40;22.43;;;11.00;;
803;SDS011;25687;49.976;8.240;2022-10-31T11:41:17;19.27;;;11.30;;
803;SDS011;25687;49.976;8.240;2022-10-31T11:43:50;16.97;;;11.30;;
803;SDS011;25687;49.976;8.240;2022-10-31T11:46:30;17.03;;;11.17;;
803;SDS011;25687;49.976;8.240;2022-10-31T11:48:59;15.47;;;10.67;;
803;SDS011;25687;49.976;8.240;2022-10-31T11:51:27;18.10;;;11.17;;
803;SDS011;25687;49.976;8.240;2022-10-31T11:53:58;20.93;;;11.77;;
803;SDS011;25687;49.976;8.240;2022-10-31T11:56:27;16.13;;;10.37;;
803;SDS011;25687;49.976;8.240;2022-10-31T11:59:03;17.63;;;9.93;;
803;SDS011;25687;49.976;8.240;2022-10-31T12:01:31;18.73;;;10.07;;
803;SDS011;25687;49.976;8.240;2022-10-31T12:04:00;16.03;;;10.70;;
803;SDS011;25687;49.976;8.240;2022-10-31T12:06:32;17.90;;;10.03;;
803;SDS011;25687;49.976;8.240;2022-10-31T12:08:59;22.27;;;10.13;;
803;SDS011;25687;49.976;8.240;2022-10-31T12:14:12;20.50;;;10.50;;
803;SDS011;25687;49.976;8.240;2022-10-31T12:22:24;16.23;;;9.93;;
803;SDS011;25687;49.976;8.240;2022-10-31T12:25:18;17.00;;;10.00;;
803;SDS011;25687;49.976;8.240;2022-10-31T12:28:09;19.83;;;10.13;;
803;SDS011;25687;49.976;8.240;2022-10-31T12:31:12;17.23;;;10.60;;
803;SDS011;25687;49.976;8.240;2022-10-31T12:33:54;14.43;;;9.73;;
803;SDS011;25687;49.976;8.240;2022-10-31T12:39:40;21.97;;;9.90;;
803;SDS011;25687;49.976;8.240;2022-10-31T12:47:20;21.50;;;9.17;;
803;SDS011;25687;49.976;8.240;2022-10-31T12:58:39;16.80;;;9.30;;
803;SDS011;25687;49.976;8.240;2022-10-31T13:01:27;16.67;;;9.07;;
803;SDS011;25687;49.976;8.240;2022-10-31T13:07:03;17.47;;;8.17;;
803;SDS011;25687;49.976;8.240;2022-10-31T13:09:38;16.57;;;8.30;;
803;SDS011;25687;49.976;8.240;2022-10-31T13:12:09;18.67;;;9.10;;
803;SDS011;25687;49.976;8.240;2022-10-31T13:14:42;15.30;;;9.27;;
803;SDS011;25687;49.976;8.240;2022-10-31T13:19:45;14.30;;;7.93;;
803;SDS011;25687;49.976;8.240;2022-10-31T13:22:14;14.30;;;8.40;;
803;SDS011;25687;49.976;8.240;2022-10-31T13:24:53;15.17;;;7.87;;
803;SDS011;25687;49.976;8.240;2022-10-31T13:27:40;15.97;;;8.80;;
803;SDS011;25687;49.976;8.240;2022-10-31T13:30:21;16.07;;;8.67;;
803;SDS011;25687;49.976;8.240;2022-10-31T13:32:49;13.47;;;7.97;;
803;SDS011;25687;49.976;8.240;2022-10-31T13:35:41;14.20;;;8.23;;
803;SDS011;25687;49.976;8.240;2022-10-31T13:38:21;21.40;;;12.97;;
803;SDS011;25687;49.976;8.240;2022-10-31T13:41:17;16.57;;;9.27;;
803;SDS011;25687;49.976;8.240;2022-10-31T13:48:58;13.57;;;8.00;;
803;SDS011;25687;49.976;8.240;2022-10-31T13:51:25;20.20;;;8.80;;
803;SDS011;25687;49.976;8.240;2022-10-31T13:54:00;15.73;;;8.97;;
803;SDS011;25687;49.976;8.240;2022-10-31T13:56:32;14.17;;;9.53;;
803;SDS011;25687;49.976;8.240;2022-10-31T14:01:33;13.00;;;8.60;;
803;SDS011;25687;49.976;8.240;2022-10-31T14:06:43;10.87;;;8.30;;
803;SDS011;25687;49.976;8.240;2022-10-31T14:09:19;10.20;;;8.10;;
803;SDS011;25687;49.976;8.240;2022-10-31T14:11:51;10.60;;;8.20;;
803;SDS011;25687;49.976;8.240;2022-10-31T14:14:18;13.83;;;8.43;;
803;SDS011;25687;49.976;8.240;2022-10-31T14:16:45;15.27;;;7.97;;
803;SDS011;25687;49.976;8.240;2022-10-31T14:19:18;13.13;;;8.23;;
803;SDS011;25687;49.976;8.240;2022-10-31T14:21:46;14.47;;;8.17;;
803;SDS011;25687;49.976;8.240;2022-10-31T14:26:54;14.13;;;9.47;;
803;SDS011;25687;49.976;8.240;2022-10-31T14:32:31;14.83;;;9.13;;
803;SDS011;25687;49.976;8.240;2022-10-31T14:46:30;13.50;;;8.80;;
803;SDS011;25687;49.976;8.240;2022-10-31T14:49:42;13.63;;;8.33;;
803;SDS011;25687;49.976;8.240;2022-10-31T14:51:49;13.70;;;9.10;;
803;SDS011;25687;49.976;8.240;2022-10-31T14:54:19;12.10;;;8.23;;
803;SDS011;25687;49.976;8.240;2022-10-31T14:56:52;15.20;;;7.70;;
803;SDS011;25687;49.976;8.240;2022-10-31T14:59:25;16.97;;;9.13;;
803;SDS011;25687;49.976;8.240;2022-10-31T15:01:59;14.90;;;8.57;;
803;SDS011;25687;49.976;8.240;2022-10-31T15:04:34;13.57;;;7.83;;
803;SDS011;25687;49.976;8.240;2022-10-31T15:09:41;14.57;;;8.60;;
803;SDS011;25687;49.976;8.240;2022-10-31T15:14:53;11.80;;;8.50;;
803;SDS011;25687;49.976;8.240;2022-10-31T15:17:20;13.70;;;7.40;;
803;SDS011;25687;49.976;8.240;2022-10-31T15:19:46;14.30;;;8.20;;
803;SDS011;25687;49.976;8.240;2022-10-31T15:22:16;12.90;;;8.90;;
803;SDS011;25687;49.976;8.240;2022-10-31T15:24:44;16.80;;;9.77;;
803;SDS011;25687;49.976;8.240;2022-10-31T15:27:11;12.00;;;7.93;;
803;SDS011;25687;49.976;8.240;2022-10-31T15:29:48;13.17;;;8.30;;
803;SDS011;25687;49.976;8.240;2022-10-31T15:32:19;14.00;;;8.33;;
803;SDS011;25687;49.976;8.240;2022-10-31T15:34:48;16.60;;;9.00;;
803;SDS011;25687;49.976;8.240;2022-10-31T15:37:15;17.33;;;10.50;;
803;SDS011;25687;49.976;8.240;2022-10-31T15:39:42;14.97;;;9.40;;
803;SDS011;25687;49.976;8.240;2022-10-31T15:45:32;18.33;;;10.30;;
803;SDS011;25687;49.976;8.240;2022-10-31T15:47:59;14.70;;;8.33;;
803;SDS011;25687;49.976;8.240;2022-10-31T15:50:36;16.17;;;9.57;;
803;SDS011;25687;49.976;8.240;2022-10-31T15:53:05;18.70;;;9.43;;
803;SDS011;25687;49.976;8.240;2022-10-31T15:55:45;15.20;;;10.30;;
803;SDS011;25687;49.976;8.240;2022-10-31T15:58:14;21.83;;;11.07;;
803;SDS011;25687;49.976;8.240;2022-10-31T16:00:42;18.07;;;10.03;;
803;SDS011;25687;49.976;8.240;2022-10-31T16:03:18;15.50;;;10.00;;
803;SDS011;25687;49.976;8.240;2022-10-31T16:05:52;17.80;;;9.53;;
803;SDS011;25687;49.976;8.240;2022-10-31T16:08:44;20.67;;;9.73;;
803;SDS011;25687;49.976;8.240;2022-10-31T16:13:38;13.63;;;9.30;;
803;SDS011;25687;49.976;8.240;2022-10-31T16:16:26;17.80;;;9.80;;
803;SDS011;25687;49.976;8.240;2022-10-31T16:18:54;15.73;;;9.47;;
803;SDS011;25687;49.976;8.240;2022-10-31T16:21:31;15.60;;;9.83;;
803;SDS011;25687;49.976;8.240;2022-10-31T16:24:00;16.60;;;9.53;;
803;SDS011;25687;49.976;8.240;2022-10-31T16:26:29;12.40;;;8.97;;
803;SDS011;25687;49.976;8.240;2022-10-31T16:28:55;13.37;;;9.47;;
803;SDS011;25687;49.976;8.240;2022-10-31T16:31:30;17.53;;;9.37;;
803;SDS011;25687;49.976;8.240;2022-10-31T16:34:10;23.87;;;9.60;;
803;SDS011;25687;49.976;8.240;2022-10-31T16:36:39;17.90;;;9.43;;
803;SDS011;25687;49.976;8.240;2022-10-31T16:39:05;16.00;;;10.00;;
803;SDS011;25687;49.976;8.240;2022-10-31T16:41:31;17.87;;;8.50;;
803;SDS011;25687;49.976;8.240;2022-10-31T16:44:00;14.17;;;9.13;;
803;SDS011;25687;49.976;8.240;2022-10-31T16:46:29;21.60;;;11.17;;
803;SDS011;25687;49.976;8.240;2022-10-31T16:48:54;19.87;;;11.27;;
803;SDS011;25687;49.976;8.240;2022-10-31T16:51:19;14.47;;;10.43;;
803;SDS011;25687;49.976;8.240;2022-10-31T16:53:45;16.60;;;9.97;;
803;SDS011;25687;49.976;8.240;2022-10-31T16:56:17;26.87;;;17.53;;
803;SDS011;25687;49.976;8.240;2022-10-31T16:58:49;16.30;;;9.67;;
803;SDS011;25687;49.976;8.240;2022-10-31T17:01:14;12.37;;;9.17;;
803;SDS011;25687;49.976;8.240;2022-10-31T17:03:40;14.43;;;9.73;;
803;SDS011;25687;49.976;8.240;2022-10-31T17:06:08;19.93;;;11.80;;
803;SDS011;25687;49.976;8.240;2022-10-31T17:08:36;19.77;;;9.37;;
803;SDS011;25687;49.976;8.240;2022-10-31T17:11:02;17.43;;;9.53;;